Golden, CO (80401)

2:10 PM MDT on July 26, 2016 (GMT -0600)
16 1/2 St & Washington Ave | | Change Station

Elev 5764 ft 39.75 °N, 105.22 °W | Updated 13 seconds ago

Overcast
Overcast
86.4 °F
Feels Like 83 °F
N
0.0
Wind Variable Wind from SSE
Gusts 0.0 mph

Today
High -- | Low -- °F
--% Chance of Precip.
Yesterday
High -- | Low -- °F
Precip. -- in
Pressure 30.19 in
Visibility 20.0 miles
Clouds Few 11000 ft
Scattered Clouds 15000 ft
Overcast 22000 ft
Heat Index 83 °F
Dew Point 36 °F
Humidity 17%
Rainfall 0.00 in
Snow Depth Not available.
5:54 AM 8:19 PM
Waning Gibbous, 51% visible
METAR KBJC 261945Z 18012KT 20SM FEW110 SCT150 OVC220 32/03 A3019
Pressure 30.19 in
Visibility 20.0 miles
Clouds Few 11000 ft
Scattered Clouds 15000 ft
Overcast 22000 ft
Heat Index 83 °F
Dew Point 36 °F
Humidity 17%
Rainfall 0.00 in
Snow Depth Not available.
5:54 AM 8:19 PM
Waning Gibbous, 51% visible
METAR KBJC 261945Z 18012KT 20SM FEW110 SCT150 OVC220 32/03 A3019

10-Day Weather Forecast

Almanac

Astronomy

Jul. 26, 2016 Rise Set
Actual Time
Civil Twilight
Nautical Twilight
Astronomical Twilight
Moon
Length of Visible Light
Length of Day
Tomorrow will be .
, % of the Moon is Illuminated

Today's Extremes

State Highs State Lows

Community

WunderPhotos

Upload Photos

1,927,678 photos uploaded!

WunderBlog® & News

Nearby

Air Quality

  Air Quality AQ Index Pollutant
Not available.

Snow Depth

Station Depth Elevation

Earthquake Activity

City Distance Mag. Time & Date
Minimum magnitude displayed is 2.5.

Coastal Water Temperatures

Place Temperature

Stations

Nearby Weather Stations

Station Location Temp. Windchill Dew Point Humidity Wind Precip. Elev Updated Type
                   

Watches & Warnings

There are currently no watches in effect.